Petersburg, Virginia
Current Conditions -  °F | °C
As of 8:55 AM on Thursday 27 Nov 2014 (Local Time) from KPTB Reporting Station
Light Rain Light Rain  
Wind Chill: 41°   Ceiling: 200
Heat Index: 41°   Visibility: 7mi
Dew Point: 40°   Wind: 0mph
Humidity: 98%   Direction: NA
Pressure: 30.06"   Gusts: NA
Location:  37.23°N, 77.4°W
Report Text: KPTB 271355Z AUTO 00000KT 7SM -RA OVC002 05/05 A3006 RMK AO2 P0001 T00500047
Loading
Personal Weather Stations






























Interactive Weather Map New forecast layout! Learn more

10-Day Weather Forecast

Advertisements
Track Severe Weather on mobile